Ncc Danah — HZEH — position and weather

sailwx.info

Track history (hours):
 
Tides and Currents Weather Stations Pressure Air Temp Water Temp Dewpoint Dewpoint Depression Visibility Wind Speed Wind Dir Waves Ship Positions

Ncc Danah

Last reported at 2018-Jun-01 01:34 UTC. Time now 2018-Jun-22 16:56 UTC.
Position N 22°36' E 069°23'.
Warning: this ship's position is 21 days out of date.

Length 183 m; draft 8.1 m.

Type: Ship (hazmat cat B). MMSI: 403516001.

Date/timePositionNaut miles runAvg speedWind from/ knotsBaromVisibWave heightAir tempDewpointWater temp
2018-Jun-01 01:34N 22°36' E 069°23'210.9
2018-Jun-01 01:24N 22°35' E 069°21'410.0
2018-Jun-01 00:59N 22°35' E 069°16'160 8.7
2018-May-31 06:34N 20°31' E 071°04'111.4
2018-May-31 06:30N 20°31' E 071°05'1411.6
2018-May-31 05:20N 20°37' E 071°18'412.1
2018-May-31 04:59N 20°39' E 071°22'1212.4
2018-May-31 04:02N 20°49' E 071°28'013.8
2018-May-31 04:00N 20°49' E 071°29'58 1.8
2018-May-29 19:01N 20°42' E 072°31'110.8
2018-May-29 18:55N 20°43' E 072°31'511.0
2018-May-29 18:30N 20°47' E 072°32'611.7
2018-May-29 18:00N 20°53' E 072°33'612.7
2018-May-29 17:30N 20°59' E 072°34'4 8.2
2018-May-29 17:00N 21°03' E 072°35'3 6.3
2018-May-29 16:30N 21°05' E 072°38'0 0.5
2018-May-29 15:48N 21°05' E 072°38'0 0.0
2018-May-29 15:24N 21°05' E 072°38'0 0.0
2018-May-29 15:00N 21°05' E 072°38'0 0.0
2018-May-29 14:30N 21°05' E 072°38'0 0.0
2018-May-29 14:00N 21°05' E 072°38'0 0.0
2018-May-29 13:30N 21°05' E 072°38'0 0.0
2018-May-29 13:00N 21°05' E 072°38'0 0.0
2018-May-29 12:30N 21°05' E 072°38'0 0.0
2018-May-29 11:30N 21°05' E 072°38'0 0.0
2018-May-29 11:00N 21°05' E 072°38'0 0.0
2018-May-29 10:30N 21°05' E 072°38'0 0.0
2018-May-29 09:54N 21°05' E 072°38'0 0.0
2018-May-29 09:30N 21°05' E 072°38'0 0.0
2018-May-29 09:00N 21°05' E 072°38'0 0.0
2018-May-29 08:30N 21°05' E 072°38'0 0.0
2018-May-29 08:00N 21°05' E 072°38'0 0.0
2018-May-29 07:30N 21°05' E 072°38'0 0.0
2018-May-29 06:54N 21°05' E 072°38'0 0.0
2018-May-29 06:30N 21°05' E 072°38'0 0.0
2018-May-29 06:00N 21°05' E 072°38'0 0.0
2018-May-29 05:30N 21°05' E 072°38'0 0.0
2018-May-29 05:00N 21°05' E 072°38'0 0.0
2018-May-29 04:30N 21°05' E 072°38'0 0.0
2018-May-29 04:00N 21°05' E 072°38'0 0.0
2018-May-29 03:30N 21°05' E 072°38'0 0.0
2018-May-29 02:54N 21°05' E 072°38'0 0.0
2018-May-29 02:30N 21°05' E 072°38'0 0.0
2018-May-29 02:00N 21°05' E 072°38'0 0.0
2018-May-29 01:30N 21°05' E 072°38'0 0.0
2018-May-29 00:42N 21°05' E 072°38'0 0.0
2018-May-29 00:12N 21°05' E 072°38'0 0.0
2018-May-29 00:00N 21°05' E 072°38'0 0.0
2018-May-28 23:30N 21°05' E 072°38'0 0.0
2018-May-28 23:00N 21°05' E 072°38'0 0.0
2018-May-28 22:30N 21°05' E 072°38'0 0.0
2018-May-28 22:00N 21°05' E 072°38'0 0.0
2018-May-28 21:30N 21°05' E 072°38'0 0.9
2018-May-28 21:00N 21°05' E 072°38'3 6.1
2018-May-28 20:29N 21°04' E 072°34'4 6.8
2018-May-28 19:58N 21°01' E 072°34'4 8.0
2018-May-28 19:30N 20°57' E 072°33'4 7.6
2018-May-28 19:00N 20°53' E 072°33'5 9.2
2018-May-28 18:31N 20°49' E 072°32'714.5
2018-May-28 18:00N 20°41' E 072°31'3015.1
2018-May-28 16:02N 20°12' E 072°28'014.4
2018-May-28 16:00N 20°11' E 072°28'714.3
2018-May-28 15:29N 20°04' E 072°28'913.8
2018-May-28 14:51N 19°55' E 072°28'1013.6
2018-May-28 14:09N 19°46' E 072°28'313.5
2018-May-28 13:57N 19°43' E 072°28'612.7
2018-May-28 13:30N 19°37' E 072°28'84 1.8
2018-May-26 15:40N 18°18' E 072°57'2 4.1
2018-May-26 15:13N 18°18' E 072°55'1 3.7
2018-May-26 15:00N 18°18' E 072°54'2 3.9
2018-May-26 14:30N 18°18' E 072°52'3 4.8
2018-May-26 13:58N 18°17' E 072°50'1 0.0
2018-May-25 01:30N 18°19' E 072°49'0 0.0
2018-May-24 17:24N 18°19' E 072°49'0 0.0
2018-May-23 18:24N 18°19' E 072°49'0 0.0
2018-May-23 18:00N 18°19' E 072°49'0 0.0
2018-May-23 15:48N 18°19' E 072°49'0 0.0
2018-May-23 15:30N 18°19' E 072°49'0 0.0
2018-May-23 13:42N 18°19' E 072°49'0 0.0
2018-May-23 13:30N 18°19' E 072°49'0 0.0
2018-May-23 13:00N 18°19' E 072°49'0 0.0
2018-May-23 12:30N 18°19' E 072°49'0 0.0
2018-May-23 01:24N 18°19' E 072°49'0 0.0
2018-May-23 01:00N 18°19' E 072°49'0 0.0
2018-May-22 18:18N 18°19' E 072°49'0 0.0
2018-May-22 18:00N 18°19' E 072°49'0 0.0
2018-May-22 17:30N 18°19' E 072°49'0 0.0
2018-May-22 15:12N 18°19' E 072°49'0 0.0
2018-May-22 13:36N 18°19' E 072°49'0 0.1
2018-May-22 13:30N 18°19' E 072°49'0 0.0
2018-May-22 13:00N 18°19' E 072°49'  
Track history (hours):
 
Tides and Currents Weather Stations Pressure Air Temp Water Temp Dewpoint Dewpoint Depression Visibility Wind Speed Wind Dir Waves Ship Positions

Ncc Danah

Last reported at 2018-Jun-01 01:34 UTC. Time now 2018-Jun-22 16:56 UTC.
Position N 22°36' E 069°23'.
Warning: this ship's position is 21 days out of date.

Length 183 m; draft 8.1 m.

Type: Ship (hazmat cat B). MMSI: 403516001.

Date/timePositionNaut miles runAvg speedWind from/ knotsBaromVisibWave heightAir tempDewpointWater temp
2018-Jun-01 01:34N 22°36' E 069°23'210.9
2018-Jun-01 01:24N 22°35' E 069°21'410.0
2018-Jun-01 00:59N 22°35' E 069°16'160 8.7
2018-May-31 06:34N 20°31' E 071°04'111.4
2018-May-31 06:30N 20°31' E 071°05'1411.6
2018-May-31 05:20N 20°37' E 071°18'412.1
2018-May-31 04:59N 20°39' E 071°22'1212.4
2018-May-31 04:02N 20°49' E 071°28'013.8
2018-May-31 04:00N 20°49' E 071°29'58 1.8
2018-May-29 19:01N 20°42' E 072°31'110.8
2018-May-29 18:55N 20°43' E 072°31'511.0
2018-May-29 18:30N 20°47' E 072°32'611.7
2018-May-29 18:00N 20°53' E 072°33'612.7
2018-May-29 17:30N 20°59' E 072°34'4 8.2
2018-May-29 17:00N 21°03' E 072°35'3 6.3
2018-May-29 16:30N 21°05' E 072°38'0 0.5
2018-May-29 15:48N 21°05' E 072°38'0 0.0
2018-May-29 15:24N 21°05' E 072°38'0 0.0
2018-May-29 15:00N 21°05' E 072°38'0 0.0
2018-May-29 14:30N 21°05' E 072°38'0 0.0
2018-May-29 14:00N 21°05' E 072°38'0 0.0
2018-May-29 13:30N 21°05' E 072°38'0 0.0
2018-May-29 13:00N 21°05' E 072°38'0 0.0
2018-May-29 12:30N 21°05' E 072°38'0 0.0
2018-May-29 11:30N 21°05' E 072°38'0 0.0
2018-May-29 11:00N 21°05' E 072°38'0 0.0
2018-May-29 10:30N 21°05' E 072°38'0 0.0
2018-May-29 09:54N 21°05' E 072°38'0 0.0
2018-May-29 09:30N 21°05' E 072°38'0 0.0
2018-May-29 09:00N 21°05' E 072°38'0 0.0
2018-May-29 08:30N 21°05' E 072°38'0 0.0
2018-May-29 08:00N 21°05' E 072°38'0 0.0
2018-May-29 07:30N 21°05' E 072°38'0 0.0
2018-May-29 06:54N 21°05' E 072°38'0 0.0
2018-May-29 06:30N 21°05' E 072°38'0 0.0
2018-May-29 06:00N 21°05' E 072°38'0 0.0
2018-May-29 05:30N 21°05' E 072°38'0 0.0
2018-May-29 05:00N 21°05' E 072°38'0 0.0
2018-May-29 04:30N 21°05' E 072°38'0 0.0
2018-May-29 04:00N 21°05' E 072°38'0 0.0
2018-May-29 03:30N 21°05' E 072°38'0 0.0
2018-May-29 02:54N 21°05' E 072°38'0 0.0
2018-May-29 02:30N 21°05' E 072°38'0 0.0
2018-May-29 02:00N 21°05' E 072°38'0 0.0
2018-May-29 01:30N 21°05' E 072°38'0 0.0
2018-May-29 00:42N 21°05' E 072°38'0 0.0
2018-May-29 00:12N 21°05' E 072°38'0 0.0
2018-May-29 00:00N 21°05' E 072°38'0 0.0
2018-May-28 23:30N 21°05' E 072°38'0 0.0
2018-May-28 23:00N 21°05' E 072°38'0 0.0
2018-May-28 22:30N 21°05' E 072°38'0 0.0
2018-May-28 22:00N 21°05' E 072°38'0 0.0
2018-May-28 21:30N 21°05' E 072°38'0 0.9
2018-May-28 21:00N 21°05' E 072°38'3 6.1
2018-May-28 20:29N 21°04' E 072°34'4 6.8
2018-May-28 19:58N 21°01' E 072°34'4 8.0
2018-May-28 19:30N 20°57' E 072°33'4 7.6
2018-May-28 19:00N 20°53' E 072°33'5 9.2
2018-May-28 18:31N 20°49' E 072°32'714.5
2018-May-28 18:00N 20°41' E 072°31'3015.1
2018-May-28 16:02N 20°12' E 072°28'014.4
2018-May-28 16:00N 20°11' E 072°28'714.3
2018-May-28 15:29N 20°04' E 072°28'913.8
2018-May-28 14:51N 19°55' E 072°28'1013.6
2018-May-28 14:09N 19°46' E 072°28'313.5
2018-May-28 13:57N 19°43' E 072°28'612.7
2018-May-28 13:30N 19°37' E 072°28'84 1.8
2018-May-26 15:40N 18°18' E 072°57'2 4.1
2018-May-26 15:13N 18°18' E 072°55'1 3.7
2018-May-26 15:00N 18°18' E 072°54'2 3.9
2018-May-26 14:30N 18°18' E 072°52'3 4.8
2018-May-26 13:58N 18°17' E 072°50'1 0.0
2018-May-25 01:30N 18°19' E 072°49'0 0.0
2018-May-24 17:24N 18°19' E 072°49'0 0.0
2018-May-23 18:24N 18°19' E 072°49'0 0.0
2018-May-23 18:00N 18°19' E 072°49'0 0.0
2018-May-23 15:48N 18°19' E 072°49'0 0.0
2018-May-23 15:30N 18°19' E 072°49'0 0.0
2018-May-23 13:42N 18°19' E 072°49'0 0.0
2018-May-23 13:30N 18°19' E 072°49'0 0.0
2018-May-23 13:00N 18°19' E 072°49'0 0.0
2018-May-23 12:30N 18°19' E 072°49'0 0.0
2018-May-23 01:24N 18°19' E 072°49'0 0.0
2018-May-23 01:00N 18°19' E 072°49'0 0.0
2018-May-22 18:18N 18°19' E 072°49'0 0.0
2018-May-22 18:00N 18°19' E 072°49'0 0.0
2018-May-22 17:30N 18°19' E 072°49'0 0.0
2018-May-22 15:12N 18°19' E 072°49'0 0.0
2018-May-22 13:36N 18°19' E 072°49'0 0.1
2018-May-22 13:30N 18°19' E 072°49'0 0.0
2018-May-22 13:00N 18°19' E 072°49'  

Dump ship's entire track history